Time;durP1;ratioP1;P1;durP2;ratioP2;P2;SDS_P1;SDS_P2;PMS_P1;PMS_P2;Temp;Humidity;BMP_temperature;BMP_pressure;BME280_temperature;BME280_humidity;BME280_pressure;Samples;Min_cycle;Max_cycle;Signal;HPM_P1;HPM_P2
2023/12/15 00:01:27;;;;;;;34.65;17.23;;;5.80;99.90;;;;;;6190188;23;20437;-73
2023/12/15 00:03:55;;;;;;;39.13;19.45;;;5.80;99.90;;;;;;6216564;23;20345;-73
2023/12/15 00:06:21;;;;;;;36.10;16.95;;;5.80;99.90;;;;;;6190059;23;20096;-73
2023/12/15 00:08:46;;;;;;;36.40;17.00;;;5.80;99.90;;;;;;6190036;23;20052;-74
2023/12/15 00:11:12;;;;;;;44.22;18.40;;;5.80;99.90;;;;;;6189878;23;20437;-74
2023/12/15 00:13:37;;;;;;;38.10;17.25;;;5.80;99.90;;;;;;6189988;23;20028;-73
2023/12/15 00:16:03;;;;;;;41.85;19.00;;;5.90;99.90;;;;;;6189911;23;20043;-74
2023/12/15 00:18:29;;;;;;;40.25;19.05;;;5.90;99.90;;;;;;6189797;23;20091;-74
2023/12/15 00:20:54;;;;;;;47.83;20.30;;;5.90;99.90;;;;;;6217077;23;20075;-74
2023/12/15 00:23:20;;;;;;;47.88;20.35;;;5.80;99.90;;;;;;6216741;23;20091;-74
2023/12/15 00:25:46;;;;;;;40.42;18.58;;;5.90;99.90;;;;;;6189829;23;20016;-74
2023/12/15 00:28:12;;;;;;;39.03;18.63;;;5.90;99.90;;;;;;6189927;23;20067;-74
2023/12/15 00:30:37;;;;;;;41.95;20.13;;;5.90;99.90;;;;;;6189783;23;20020;-74
2023/12/15 00:33:03;;;;;;;45.63;21.08;;;5.90;99.90;;;;;;6216385;23;20318;-74
2023/12/15 00:35:28;;;;;;;50.85;21.50;;;5.90;99.90;;;;;;6189741;23;20013;-74
2023/12/15 00:37:54;;;;;;;42.97;19.80;;;5.90;99.90;;;;;;6189854;23;20025;-74
2023/12/15 00:40:22;;;;;;;47.20;20.55;;;5.90;99.90;;;;;;6189910;23;20016;-74
2023/12/15 00:42:48;;;;;;;52.85;21.67;;;6.00;99.90;;;;;;6189574;23;20031;-74
2023/12/15 00:45:14;;;;;;;47.92;21.00;;;6.00;99.90;;;;;;6189740;23;20032;-74
2023/12/15 00:47:39;;;;;;;54.53;21.92;;;6.00;99.90;;;;;;6189711;23;20104;-74
2023/12/15 00:50:06;;;;;;;54.78;20.95;;;5.90;99.90;;;;;;6216412;23;20092;-74
2023/12/15 00:52:31;;;;;;;49.85;21.50;;;6.00;99.90;;;;;;6189562;23;20369;-73
2023/12/15 00:54:58;;;;;;;53.15;21.50;;;6.00;99.90;;;;;;6189306;23;20051;-74
2023/12/15 00:57:24;;;;;;;55.15;22.75;;;5.90;99.90;;;;;;6189418;23;20074;-74
2023/12/15 00:59:49;;;;;;;50.33;22.92;;;6.00;99.90;;;;;;6189688;23;20036;-74
2023/12/15 01:02:15;;;;;;;55.17;21.95;;;6.00;99.90;;;;;;6189274;23;20023;-74
2023/12/15 01:04:41;;;;;;;51.85;22.35;;;5.90;99.90;;;;;;6189223;23;20499;-74
2023/12/15 01:07:06;;;;;;;57.90;23.42;;;6.00;99.90;;;;;;6189538;23;20055;-74
2023/12/15 01:09:32;;;;;;;54.00;22.70;;;6.00;99.90;;;;;;6216440;23;20099;-74
2023/12/15 01:11:57;;;;;;;61.95;22.48;;;6.00;99.90;;;;;;6189560;23;20445;-74
2023/12/15 01:14:23;;;;;;;45.33;21.88;;;6.00;99.90;;;;;;6189503;23;20016;-74
2023/12/15 01:16:49;;;;;;;62.92;22.67;;;6.00;99.90;;;;;;6216230;23;20329;-74
2023/12/15 01:19:17;;;;;;;51.70;21.00;;;6.00;99.90;;;;;;6189542;23;20087;-74
2023/12/15 01:21:44;;;;;;;56.33;22.25;;;6.00;99.90;;;;;;6189399;23;20326;-74
2023/12/15 01:24:11;;;;;;;52.28;21.63;;;6.00;99.90;;;;;;6216411;23;20015;-74
2023/12/15 01:26:36;;;;;;;60.28;21.63;;;6.10;99.90;;;;;;6189447;23;20020;-74
2023/12/15 01:29:02;;;;;;;51.47;20.55;;;6.00;99.90;;;;;;6189412;23;20016;-74
2023/12/15 01:31:28;;;;;;;52.03;20.25;;;6.10;99.90;;;;;;6189370;23;20094;-74
2023/12/15 01:33:53;;;;;;;58.60;22.08;;;6.10;99.90;;;;;;6189407;23;20021;-74
2023/12/15 01:36:19;;;;;;;58.53;22.50;;;6.10;99.90;;;;;;6216187;23;20021;-74
2023/12/15 01:38:45;;;;;;;50.53;21.67;;;6.10;99.90;;;;;;6189357;23;20092;-74
2023/12/15 01:41:10;;;;;;;46.08;20.30;;;6.10;99.90;;;;;;6189348;23;20012;-74
2023/12/15 01:43:36;;;;;;;46.20;20.58;;;6.00;99.90;;;;;;6189190;23;20016;-74
2023/12/15 01:46:02;;;;;;;44.00;19.77;;;6.10;99.90;;;;;;6189394;23;20031;-74
2023/12/15 01:48:30;;;;;;;55.83;20.60;;;6.00;99.90;;;;;;6216205;23;20035;-74
2023/12/15 01:50:55;;;;;;;51.33;19.45;;;6.00;99.90;;;;;;6189222;23;20067;-74
2023/12/15 01:53:21;;;;;;;49.72;19.35;;;5.90;99.90;;;;;;6189230;23;20008;-74
2023/12/15 01:55:47;;;;;;;42.15;19.25;;;5.90;99.90;;;;;;6189057;23;20067;-73
2023/12/15 01:58:17;;;;;;;46.47;19.17;;;5.80;99.90;;;;;;6189242;23;20028;-74
2023/12/15 02:00:47;;;;;;;41.08;17.80;;;5.80;99.90;;;;;;6189274;23;20025;-73
2023/12/15 02:03:12;;;;;;;47.50;19.83;;;5.80;99.90;;;;;;6189299;23;20020;-74
2023/12/15 02:05:38;;;;;;;41.72;19.52;;;5.70;99.90;;;;;;6189094;23;20032;-74
2023/12/15 02:08:03;;;;;;;38.92;16.70;;;5.70;99.90;;;;;;6189636;23;20020;-74
2023/12/15 02:10:29;;;;;;;44.42;19.48;;;5.70;99.90;;;;;;6189278;23;20024;-73
2023/12/15 02:12:55;;;;;;;48.72;20.45;;;5.70;99.90;;;;;;6189097;23;20039;-73
2023/12/15 02:15:20;;;;;;;50.38;19.58;;;5.70;99.90;;;;;;6189290;23;20013;-73
2023/12/15 02:17:46;;;;;;;43.80;18.08;;;5.70;99.90;;;;;;6218028;23;20040;-74
2023/12/15 02:20:11;;;;;;;42.97;18.98;;;5.70;99.90;;;;;;6191042;23;20345;-73
2023/12/15 02:22:37;;;;;;;42.88;18.63;;;5.70;99.90;;;;;;6191050;23;20016;-74
2023/12/15 02:25:03;;;;;;;38.63;17.65;;;5.70;99.90;;;;;;6191010;23;20079;-74
2023/12/15 02:27:28;;;;;;;41.67;16.95;;;5.60;99.90;;;;;;6190888;23;20063;-73
2023/12/15 02:29:54;;;;;;;42.58;16.45;;;5.60;99.90;;;;;;6191049;23;20096;-74
2023/12/15 02:32:20;;;;;;;37.83;17.40;;;5.60;99.90;;;;;;6190930;23;20449;-74
2023/12/15 02:34:45;;;;;;;31.55;16.42;;;5.60;99.90;;;;;;6217510;23;20027;-73
2023/12/15 02:37:11;;;;;;;40.25;17.50;;;5.50;99.90;;;;;;6217637;23;20023;-74
2023/12/15 02:39:40;;;;;;;43.63;17.05;;;5.50;99.90;;;;;;6190803;23;20017;-73
2023/12/15 02:42:05;;;;;;;41.15;17.55;;;5.40;99.90;;;;;;6190958;23;20522;-73
2023/12/15 02:44:31;;;;;;;40.28;17.52;;;5.50;99.90;;;;;;6190864;23;20016;-74
2023/12/15 02:46:57;;;;;;;40.90;16.42;;;5.40;99.90;;;;;;6190862;23;20024;-73
2023/12/15 02:49:23;;;;;;;38.45;17.73;;;5.30;99.90;;;;;;6190836;23;20048;-74
2023/12/15 02:51:48;;;;;;;43.40;16.92;;;5.30;99.90;;;;;;6190761;23;20059;-74
2023/12/15 02:54:14;;;;;;;41.70;18.80;;;5.30;99.90;;;;;;6190553;23;20020;-74
2023/12/15 02:56:40;;;;;;;40.80;17.13;;;5.30;99.90;;;;;;6190627;23;20099;-74
2023/12/15 02:59:05;;;;;;;37.30;16.95;;;5.20;99.90;;;;;;6190758;23;20024;-73
2023/12/15 03:01:31;;;;;;;38.35;16.98;;;5.20;99.90;;;;;;6190301;23;20008;-73
2023/12/15 03:03:57;;;;;;;37.47;15.40;;;5.10;99.90;;;;;;6190422;23;20025;-73
2023/12/15 03:06:22;;;;;;;37.15;15.25;;;5.10;99.90;;;;;;6190662;23;20387;-74
2023/12/15 03:08:48;;;;;;;34.80;15.32;;;5.00;99.90;;;;;;6217453;23;20095;-74
2023/12/15 03:11:14;;;;;;;32.17;14.05;;;5.00;99.90;;;;;;6190382;23;20016;-74
2023/12/15 03:13:40;;;;;;;30.50;13.85;;;5.00;99.90;;;;;;6190526;23;20052;-73
2023/12/15 03:16:11;;;;;;;32.00;14.73;;;4.90;99.90;;;;;;6190269;23;20025;-74
2023/12/15 03:18:37;;;;;;;33.05;14.40;;;4.90;99.90;;;;;;6190540;23;20470;-74
2023/12/15 03:21:07;;;;;;;36.53;15.43;;;4.90;99.90;;;;;;6190545;23;20449;-73
2023/12/15 03:23:36;;;;;;;36.63;14.75;;;4.90;99.90;;;;;;6190525;23;20021;-73
2023/12/15 03:26:01;;;;;;;39.17;15.13;;;4.90;99.90;;;;;;6190483;23;20448;-73
2023/12/15 03:28:27;;;;;;;32.72;15.63;;;4.90;99.90;;;;;;6216631;23;20024;-73
2023/12/15 03:30:53;;;;;;;29.63;14.70;;;4.90;99.90;;;;;;6191170;23;20020;-74
2023/12/15 03:33:18;;;;;;;34.78;15.00;;;4.90;99.90;;;;;;6190465;23;20017;-74
2023/12/15 03:35:44;;;;;;;34.17;14.27;;;4.90;99.90;;;;;;6190672;23;20055;-73
2023/12/15 03:38:12;;;;;;;32.70;14.73;;;4.90;99.90;;;;;;6190324;23;20031;-74
2023/12/15 03:40:37;;;;;;;29.65;13.40;;;4.90;99.90;;;;;;6190249;23;20013;-74
2023/12/15 03:43:03;;;;;;;35.80;14.90;;;4.90;99.90;;;;;;6190291;23;20023;-73
2023/12/15 03:45:28;;;;;;;40.33;13.88;;;4.90;99.90;;;;;;6190307;23;20012;-73
2023/12/15 03:47:54;;;;;;;32.78;13.60;;;4.80;99.90;;;;;;6190169;23;20021;-73
2023/12/15 03:50:19;;;;;;;39.88;15.18;;;4.80;99.90;;;;;;6190289;23;20028;-74
2023/12/15 03:52:45;;;;;;;40.13;15.73;;;4.80;99.90;;;;;;6190211;23;20388;-74
2023/12/15 03:55:11;;;;;;;38.53;15.68;;;4.90;99.90;;;;;;6189912;23;20063;-73
2023/12/15 03:57:36;;;;;;;36.80;14.88;;;4.90;99.90;;;;;;6189798;23;20056;-74
2023/12/15 04:00:03;;;;;;;32.92;12.75;;;4.90;99.90;;;;;;6190149;23;20092;-73
2023/12/15 04:02:28;;;;;;;33.40;14.38;;;5.00;99.90;;;;;;6189988;23;20020;-74
2023/12/15 04:04:54;;;;;;;38.67;16.13;;;5.00;99.90;;;;;;6190116;23;20012;-74
2023/12/15 04:07:20;;;;;;;39.17;15.63;;;5.00;99.90;;;;;;6189934;23;20345;-74
2023/12/15 04:09:46;;;;;;;39.92;16.25;;;5.00;99.90;;;;;;6189958;23;20027;-74
2023/12/15 04:12:14;;;;;;;39.65;14.98;;;5.10;99.90;;;;;;6191101;23;20401;-73
2023/12/15 04:14:52;;;;;;;35.83;15.57;;;5.10;99.90;;;;;;6189919;23;20023;-74
2023/12/15 04:17:18;;;;;;;42.63;14.75;;;5.10;99.90;;;;;;6189964;23;20025;-74
2023/12/15 04:19:43;;;;;;;42.95;14.63;;;5.10;99.90;;;;;;6189861;23;20493;-73
2023/12/15 04:22:09;;;;;;;35.45;13.75;;;5.10;99.90;;;;;;6189961;23;20103;-73
2023/12/15 04:24:35;;;;;;;33.92;13.65;;;5.10;99.90;;;;;;6189941;23;20012;-73
2023/12/15 04:27:00;;;;;;;39.30;14.73;;;5.00;99.90;;;;;;6189976;23;20017;-74
2023/12/15 04:29:26;;;;;;;29.95;12.52;;;5.00;99.90;;;;;;6189975;23;20021;-74
2023/12/15 04:31:51;;;;;;;32.83;13.45;;;5.00;99.90;;;;;;6189715;23;20012;-73
2023/12/15 04:34:17;;;;;;;30.48;11.95;;;4.90;99.90;;;;;;6189841;23;20344;-74
2023/12/15 04:36:44;;;;;;;30.13;11.52;;;4.80;99.90;;;;;;6189691;23;20017;-74
2023/12/15 04:39:10;;;;;;;28.48;10.38;;;4.80;99.90;;;;;;6189224;23;20017;-74
2023/12/15 04:41:35;;;;;;;31.60;12.45;;;4.80;99.90;;;;;;6189615;23;20012;-73
2023/12/15 04:44:01;;;;;;;28.08;10.27;;;4.70;99.90;;;;;;6189824;23;20017;-73
2023/12/15 04:46:30;;;;;;;25.83;10.52;;;4.80;99.90;;;;;;6189773;23;20052;-73
2023/12/15 04:48:59;;;;;;;24.08;10.02;;;4.70;99.90;;;;;;6189694;23;20099;-73
2023/12/15 04:51:25;;;;;;;29.05;9.75;;;4.70;99.90;;;;;;6216507;23;20038;-73
2023/12/15 04:53:51;;;;;;;23.10;8.50;;;4.60;99.90;;;;;;6189398;23;20369;-74
2023/12/15 04:56:16;;;;;;;25.05;8.18;;;4.60;99.90;;;;;;6189516;23;20047;-74
2023/12/15 04:58:43;;;;;;;27.77;7.65;;;4.60;99.90;;;;;;6189550;23;20088;-74
2023/12/15 05:01:15;;;;;;;21.15;10.18;;;4.60;99.90;;;;;;6189572;23;20067;-73
2023/12/15 05:03:42;;;;;;;28.25;8.70;;;4.70;99.90;;;;;;6189662;23;20071;-74
2023/12/15 05:06:17;;;;;;;33.67;7.93;;;4.70;99.90;;;;;;6190855;23;20063;-73
2023/12/15 05:08:43;;;;;;;23.00;7.93;;;4.70;99.90;;;;;;6189468;23;20019;-73
2023/12/15 05:11:09;;;;;;;27.25;7.28;;;4.70;99.90;;;;;;6189494;23;20087;-74
2023/12/15 05:13:35;;;;;;;26.73;6.53;;;4.70;99.90;;;;;;6189482;23;20078;-74
2023/12/15 05:16:00;;;;;;;25.55;6.88;;;4.70;99.90;;;;;;6189465;23;20023;-74
2023/12/15 05:18:29;;;;;;;21.95;6.75;;;4.60;99.90;;;;;;6189523;23;20013;-73
2023/12/15 05:20:54;;;;;;;24.10;6.20;;;4.60;99.90;;;;;;6189141;23;20020;-73
2023/12/15 05:23:20;;;;;;;26.05;6.05;;;4.70;99.90;;;;;;6189468;23;20495;-73
2023/12/15 05:25:45;;;;;;;29.50;7.40;;;4.60;99.90;;;;;;6189396;23;20017;-74
2023/12/15 05:28:12;;;;;;;33.22;7.32;;;4.60;99.90;;;;;;6190175;23;20028;-74
2023/12/15 05:30:38;;;;;;;22.70;6.40;;;4.70;99.90;;;;;;6189403;23;20062;-74
2023/12/15 05:33:03;;;;;;;26.95;6.15;;;4.80;99.90;;;;;;6189417;23;20091;-74
2023/12/15 05:35:29;;;;;;;24.58;5.88;;;4.70;99.90;;;;;;6189377;23;20349;-73
2023/12/15 05:37:54;;;;;;;23.75;5.93;;;4.70;99.90;;;;;;6189416;23;20031;-73
2023/12/15 05:40:20;;;;;;;29.27;6.22;;;4.70;99.90;;;;;;6215975;23;20024;-74
2023/12/15 05:42:46;;;;;;;28.20;7.05;;;4.80;99.90;;;;;;6189290;23;20441;-73
2023/12/15 05:45:12;;;;;;;24.67;6.32;;;4.80;99.90;;;;;;6189311;23;20055;-73
2023/12/15 05:47:38;;;;;;;38.90;7.18;;;4.90;99.90;;;;;;6189244;23;20412;-73
2023/12/15 05:50:04;;;;;;;30.55;7.05;;;4.90;99.90;;;;;;6189304;23;20021;-74
2023/12/15 05:52:29;;;;;;;34.90;6.97;;;4.90;99.90;;;;;;6191319;23;20063;-74
2023/12/15 05:54:55;;;;;;;33.58;6.53;;;5.00;99.90;;;;;;6191040;23;20020;-74
2023/12/15 05:57:21;;;;;;;34.88;7.28;;;5.00;99.90;;;;;;6191233;23;20025;-74
2023/12/15 05:59:47;;;;;;;30.33;7.80;;;5.00;99.90;;;;;;6191159;23;20092;-73
2023/12/15 06:02:15;;;;;;;33.10;6.82;;;5.00;99.90;;;;;;6191331;23;20050;-73
2023/12/15 06:04:41;;;;;;;26.70;5.38;;;4.90;99.90;;;;;;6217873;23;20074;-74
2023/12/15 06:07:06;;;;;;;20.23;6.18;;;4.90;99.90;;;;;;6191204;23;20020;-74
2023/12/15 06:09:32;;;;;;;25.77;5.80;;;4.90;99.90;;;;;;6217775;23;20156;-74
2023/12/15 06:11:58;;;;;;;42.60;6.65;;;4.90;99.90;;;;;;6191238;23;20322;-73
2023/12/15 06:14:26;;;;;;;36.25;7.47;;;4.90;99.90;;;;;;6191087;23;20017;-74
2023/12/15 06:16:52;;;;;;;28.17;6.05;;;4.90;99.90;;;;;;6217637;23;20051;-74
2023/12/15 06:19:17;;;;;;;27.45;6.18;;;4.90;99.90;;;;;;6191018;23;20020;-73
2023/12/15 06:21:43;;;;;;;23.92;5.35;;;4.90;99.90;;;;;;6217993;23;20055;-74
2023/12/15 06:24:08;;;;;;;30.63;5.07;;;4.90;99.90;;;;;;6191057;23;20107;-74
2023/12/15 06:26:34;;;;;;;30.10;5.55;;;4.90;99.90;;;;;;6191095;23;20367;-74
2023/12/15 06:29:00;;;;;;;29.05;6.28;;;4.90;99.90;;;;;;6191050;23;20020;-73
2023/12/15 06:31:25;;;;;;;32.55;7.55;;;4.90;99.90;;;;;;6190937;23;20016;-74
2023/12/15 06:33:51;;;;;;;27.27;5.68;;;4.90;99.90;;;;;;6191007;23;20322;-73
2023/12/15 06:36:18;;;;;;;33.17;5.93;;;4.90;99.90;;;;;;6190860;23;20027;-74
2023/12/15 06:38:44;;;;;;;25.00;5.10;;;4.90;99.90;;;;;;6190838;23;20017;-74
2023/12/15 06:41:11;;;;;;;25.65;5.53;;;4.90;99.90;;;;;;6190868;23;20048;-73
2023/12/15 06:43:41;;;;;;;28.80;5.63;;;4.80;99.90;;;;;;6190904;23;20017;-73
2023/12/15 06:46:08;;;;;;;40.10;6.95;;;4.80;99.90;;;;;;6190751;23;20027;-73
2023/12/15 06:48:34;;;;;;;27.95;5.88;;;4.70;99.90;;;;;;6190811;23;20068;-73
2023/12/15 06:51:00;;;;;;;30.77;7.45;;;4.80;99.90;;;;;;6190718;23;20020;-73
2023/12/15 06:53:25;;;;;;;32.65;5.57;;;4.80;99.90;;;;;;6190798;23;20012;-74
2023/12/15 06:55:51;;;;;;;29.05;5.40;;;4.80;99.90;;;;;;6190482;23;20020;-73
2023/12/15 06:58:17;;;;;;;31.65;6.32;;;4.80;99.90;;;;;;6190694;23;20039;-74
2023/12/15 07:00:43;;;;;;;39.20;6.43;;;4.80;99.90;;;;;;6190700;23;20013;-74
2023/12/15 07:03:09;;;;;;;27.33;6.07;;;4.80;99.90;;;;;;6190199;23;20071;-73
2023/12/15 07:05:35;;;;;;;28.52;6.53;;;4.70;99.90;;;;;;6190002;23;20055;-73
2023/12/15 07:08:01;;;;;;;29.90;5.90;;;4.70;99.90;;;;;;6190607;23;20072;-74
2023/12/15 07:10:27;;;;;;;25.95;5.65;;;4.60;99.90;;;;;;6190574;23;20066;-74
2023/12/15 07:12:52;;;;;;;30.73;6.35;;;4.60;99.90;;;;;;6190629;23;20016;-74
2023/12/15 07:15:18;;;;;;;34.03;6.05;;;4.60;99.90;;;;;;6190370;23;20021;-74
2023/12/15 07:17:45;;;;;;;32.97;6.18;;;4.60;99.90;;;;;;6190489;23;20052;-74
2023/12/15 07:20:10;;;;;;;24.25;5.72;;;4.60;99.90;;;;;;6190386;23;20044;-73
2023/12/15 07:22:36;;;;;;;24.95;5.55;;;4.60;99.90;;;;;;6190454;23;20028;-74
2023/12/15 07:25:11;;;;;;;29.63;6.07;;;4.60;99.90;;;;;;6190401;23;20314;-74
2023/12/15 07:27:36;;;;;;;32.33;5.18;;;4.60;99.90;;;;;;6189945;23;20019;-74
2023/12/15 07:30:06;;;;;;;24.73;4.88;;;4.70;99.90;;;;;;6217241;23;20092;-73
2023/12/15 07:32:31;;;;;;;40.30;6.10;;;4.60;99.90;;;;;;6190315;23;20372;-74
2023/12/15 07:35:00;;;;;;;32.90;7.68;;;4.60;99.90;;;;;;6190233;23;20471;-74
2023/12/15 07:37:25;;;;;;;29.40;6.28;;;4.70;99.90;;;;;;6190190;23;20091;-73
2023/12/15 07:39:51;;;;;;;29.90;4.80;;;4.70;99.90;;;;;;6190236;23;20048;-74
2023/12/15 07:42:17;;;;;;;28.13;5.38;;;4.70;99.90;;;;;;6190218;23;20467;-74
2023/12/15 07:44:42;;;;;;;25.48;5.05;;;4.70;99.90;;;;;;6190308;23;20016;-74
2023/12/15 07:47:08;;;;;;;39.47;6.53;;;4.80;99.90;;;;;;6190199;23;20413;-74
2023/12/15 07:49:34;;;;;;;37.22;5.18;;;4.80;99.90;;;;;;6189021;23;20100;-74
2023/12/15 07:52:03;;;;;;;31.50;5.35;;;4.70;99.90;;;;;;6189975;23;20047;-74
2023/12/15 07:54:30;;;;;;;31.35;5.15;;;4.80;99.90;;;;;;6189563;23;20131;-74
2023/12/15 07:56:57;;;;;;;33.88;5.82;;;4.80;99.90;;;;;;6216205;23;20072;-74
2023/12/15 07:59:22;;;;;;;31.05;5.15;;;4.80;99.90;;;;;;6189743;23;20364;-74
2023/12/15 08:01:52;;;;;;;22.48;4.30;;;4.90;99.90;;;;;;6189950;23;20017;-74
2023/12/15 08:04:18;;;;;;;31.85;5.10;;;4.90;99.90;;;;;;6189651;23;20368;-76
2023/12/15 08:06:44;;;;;;;28.00;5.40;;;4.90;99.90;;;;;;6189815;23;20068;-74
2023/12/15 08:09:10;;;;;;;33.58;6.13;;;5.00;99.90;;;;;;6216748;23;20016;-73
2023/12/15 08:11:38;;;;;;;35.83;5.20;;;4.90;99.90;;;;;;6189522;23;20471;-74
2023/12/15 08:14:04;;;;;;;39.25;5.55;;;4.90;99.90;;;;;;6189519;23;20052;-74
2023/12/15 08:16:34;;;;;;;34.60;5.15;;;4.90;99.90;;;;;;6189599;23;20099;-74
2023/12/15 08:19:03;;;;;;;22.15;5.18;;;4.90;99.90;;;;;;6189564;23;20464;-73
2023/12/15 08:21:28;;;;;;;28.73;5.90;;;4.90;99.90;;;;;;6189590;23;20017;-73
2023/12/15 08:23:54;;;;;;;31.77;6.32;;;4.90;99.90;;;;;;6189626;23;20020;-74
2023/12/15 08:26:23;;;;;;;22.90;4.95;;;4.90;99.90;;;;;;6189693;23;20024;-74
2023/12/15 08:28:48;;;;;;;33.78;5.13;;;5.00;99.90;;;;;;6189549;23;20055;-74
2023/12/15 08:31:17;;;;;;;28.48;6.03;;;5.00;99.90;;;;;;6189670;23;20476;-74
2023/12/15 08:33:43;;;;;;;29.92;5.13;;;5.00;99.90;;;;;;6216486;23;20023;-74
2023/12/15 08:36:10;;;;;;;26.92;5.57;;;5.00;99.90;;;;;;6189223;23;20016;-74
2023/12/15 08:38:35;;;;;;;26.67;5.90;;;5.00;99.90;;;;;;6189269;23;20031;-74
2023/12/15 08:41:02;;;;;;;42.90;5.57;;;5.00;99.90;;;;;;6189184;23;20009;-74
2023/12/15 08:43:28;;;;;;;32.22;5.00;;;5.10;99.90;;;;;;6189412;23;20048;-74
2023/12/15 08:45:54;;;;;;;37.70;4.93;;;5.10;99.90;;;;;;6189359;23;20040;-74
2023/12/15 08:48:20;;;;;;;26.33;5.55;;;5.10;99.90;;;;;;6189142;23;20017;-74
2023/12/15 08:50:45;;;;;;;26.35;5.35;;;5.10;99.90;;;;;;6189234;23;20441;-74
2023/12/15 08:53:12;;;;;;;30.48;5.47;;;5.20;99.90;;;;;;6189241;23;20020;-74
2023/12/15 08:55:39;;;;;;;33.92;5.53;;;5.10;99.90;;;;;;6189148;23;20032;-74
2023/12/15 08:58:07;;;;;;;28.05;4.75;;;5.20;99.90;;;;;;6189184;23;20071;-75
2023/12/15 09:00:32;;;;;;;30.23;5.57;;;5.20;99.90;;;;;;6189318;23;20416;-74
2023/12/15 09:02:58;;;;;;;33.65;5.65;;;5.30;99.90;;;;;;6189323;23;20436;-74
2023/12/15 09:05:24;;;;;;;27.73;5.20;;;5.30;99.90;;;;;;6189593;23;20036;-74
2023/12/15 09:07:53;;;;;;;26.88;5.72;;;5.30;99.90;;;;;;6189221;23;20017;-74
2023/12/15 09:10:19;;;;;;;30.88;5.22;;;5.30;99.90;;;;;;6189220;23;20021;-74
2023/12/15 09:12:46;;;;;;;32.13;5.82;;;5.30;99.90;;;;;;6189048;23;20467;-74
2023/12/15 09:15:12;;;;;;;32.60;5.15;;;5.30;99.90;;;;;;6189160;23;20345;-74
2023/12/15 09:17:39;;;;;;;27.48;4.85;;;5.30;99.90;;;;;;6189042;23;20457;-74
2023/12/15 09:20:12;;;;;;;27.55;5.28;;;5.40;99.90;;;;;;6188973;23;20333;-74
2023/12/15 09:22:39;;;;;;;38.80;5.82;;;5.40;99.90;;;;;;6188966;23;20021;-74
2023/12/15 09:25:05;;;;;;;26.48;5.70;;;5.40;99.90;;;;;;6188648;23;20099;-74
2023/12/15 09:27:31;;;;;;;36.85;5.35;;;5.40;99.90;;;;;;6189001;23;20027;-74
2023/12/15 09:29:59;;;;;;;26.83;5.53;;;5.50;99.90;;;;;;6186461;23;20025;-74
2023/12/15 09:32:29;;;;;;;36.50;5.53;;;5.40;99.90;;;;;;6189040;23;20071;-74
2023/12/15 09:34:55;;;;;;;27.42;5.45;;;5.50;99.90;;;;;;6188908;23;20067;-74
2023/12/15 09:37:20;;;;;;;38.45;5.97;;;5.50;99.90;;;;;;6189042;23;20020;-74
2023/12/15 09:39:46;;;;;;;35.13;5.97;;;5.50;99.90;;;;;;6188986;23;20020;-75
2023/12/15 09:42:11;;;;;;;30.42;6.43;;;5.50;99.90;;;;;;6188997;23;20103;-74
2023/12/15 09:44:43;;;;;;;28.45;5.78;;;5.60;99.90;;;;;;6212959;23;20532;-74
2023/12/15 09:47:11;;;;;;;34.42;5.50;;;5.60;99.90;;;;;;6188855;23;20043;-74
2023/12/15 09:49:39;;;;;;;37.70;5.80;;;5.70;99.90;;;;;;6188837;23;20495;-74
2023/12/15 09:52:07;;;;;;;29.90;5.45;;;5.80;99.90;;;;;;6188939;23;20436;-74
2023/12/15 09:54:34;;;;;;;33.40;5.47;;;5.80;99.90;;;;;;6188922;23;20021;-74
2023/12/15 09:57:03;;;;;;;35.72;5.75;;;5.90;99.90;;;;;;6188817;23;20024;-74
2023/12/15 09:59:32;;;;;;;28.58;4.55;;;6.00;99.90;;;;;;6188894;23;20478;-75
2023/12/15 10:01:57;;;;;;;28.33;5.40;;;6.00;99.90;;;;;;6189015;23;20032;-74
2023/12/15 10:04:23;;;;;;;27.80;6.35;;;6.10;99.90;;;;;;6188941;23;20337;-74
2023/12/15 10:06:48;;;;;;;32.72;5.97;;;6.20;99.90;;;;;;6189055;23;20024;-74
2023/12/15 10:09:14;;;;;;;35.60;6.00;;;6.20;99.90;;;;;;6188906;23;20055;-74
2023/12/15 10:11:43;;;;;;;32.90;6.00;;;6.20;99.90;;;;;;6215309;23;20381;-74
2023/12/15 10:14:09;;;;;;;31.92;5.10;;;6.30;99.90;;;;;;6215644;23;20084;-74
2023/12/15 10:16:37;;;;;;;28.20;5.13;;;6.30;99.90;;;;;;6188752;23;20027;-74
2023/12/15 10:19:06;;;;;;;38.58;6.32;;;6.40;99.90;;;;;;6188868;23;20020;-74
2023/12/15 10:21:33;;;;;;;33.40;6.47;;;6.50;99.90;;;;;;6188932;23;20029;-74
2023/12/15 10:24:16;;;;;;;36.38;6.30;;;6.50;99.90;;;;;;6188890;23;20103;-74
2023/12/15 10:26:42;;;;;;;33.58;6.25;;;6.50;99.90;;;;;;6188792;23;20092;-72
2023/12/15 10:29:08;;;;;;;34.75;6.13;;;6.60;99.90;;;;;;6188755;23;20420;-75
2023/12/15 10:31:33;;;;;;;39.55;6.38;;;6.50;99.90;;;;;;6188761;23;20019;-74
2023/12/15 10:33:59;;;;;;;33.83;5.65;;;6.60;99.90;;;;;;6188862;23;20075;-74
2023/12/15 10:36:25;;;;;;;39.58;6.03;;;6.70;99.90;;;;;;6188835;23;20012;-74
2023/12/15 10:38:51;;;;;;;29.40;5.28;;;6.70;99.90;;;;;;6190706;23;20020;-74
2023/12/15 10:41:18;;;;;;;40.05;7.40;;;6.80;99.90;;;;;;6190446;23;20016;-74
2023/12/15 10:43:47;;;;;;;37.35;7.50;;;6.80;99.90;;;;;;6217281;23;20020;-74
2023/12/15 10:46:15;;;;;;;36.17;6.30;;;6.80;99.90;;;;;;6190534;23;20068;-74
2023/12/15 10:48:41;;;;;;;29.92;6.80;;;6.90;99.90;;;;;;6190534;23;20066;-74
2023/12/15 10:51:08;;;;;;;39.88;6.43;;;6.90;99.90;;;;;;6190531;23;20066;-74
2023/12/15 10:53:35;;;;;;;32.58;6.10;;;7.00;99.90;;;;;;6190274;23;20087;-74
2023/12/15 10:56:01;;;;;;;32.80;5.47;;;7.00;99.90;;;;;;6190254;23;20340;-74
2023/12/15 10:58:26;;;;;;;37.10;6.05;;;7.00;99.90;;;;;;6190390;23;20449;-74
2023/12/15 11:00:53;;;;;;;36.10;6.13;;;7.10;99.90;;;;;;6190307;23;20021;-74
2023/12/15 11:03:19;;;;;;;36.00;5.88;;;7.20;99.90;;;;;;6190294;23;20048;-73
2023/12/15 11:05:45;;;;;;;37.03;6.32;;;7.20;99.90;;;;;;6190409;23;20012;-73
2023/12/15 11:08:13;;;;;;;33.95;5.70;;;7.20;99.90;;;;;;6190295;23;20020;-73
2023/12/15 11:10:38;;;;;;;34.85;7.22;;;7.20;99.90;;;;;;6190174;23;20067;-73
2023/12/15 11:13:42;;;;;;;32.30;5.75;;;7.30;99.90;;;;;;6216768;23;20449;-74
2023/12/15 11:16:08;;;;;;;39.83;6.15;;;7.30;99.90;;;;;;6189925;23;20028;-73
2023/12/15 11:18:34;;;;;;;42.95;7.03;;;7.30;99.90;;;;;;6190259;23;20353;-73
2023/12/15 11:21:00;;;;;;;32.65;6.07;;;7.40;99.90;;;;;;6190191;23;20012;-73
2023/12/15 11:23:26;;;;;;;37.47;6.28;;;7.40;99.90;;;;;;6190241;23;20048;-73
2023/12/15 11:25:57;;;;;;;35.85;6.68;;;7.40;99.90;;;;;;6190139;23;20397;-73
2023/12/15 11:28:22;;;;;;;33.95;5.78;;;7.50;99.90;;;;;;6190080;23;20019;-74
2023/12/15 11:30:52;;;;;;;37.25;7.20;;;7.50;99.90;;;;;;6190191;23;20021;-74
2023/12/15 11:33:24;;;;;;;38.60;6.30;;;7.50;99.90;;;;;;6190331;23;20016;-74
2023/12/15 11:35:53;;;;;;;28.75;5.50;;;7.50;99.90;;;;;;6189647;23;20096;-75
2023/12/15 11:38:20;;;;;;;51.42;6.22;;;7.50;99.90;;;;;;6189480;23;20084;-74
2023/12/15 11:40:50;;;;;;;35.15;6.30;;;7.60;99.90;;;;;;6189571;23;20017;-74
2023/12/15 11:43:15;;;;;;;36.25;7.43;;;7.60;99.90;;;;;;6189446;23;20013;-75
2023/12/15 11:45:42;;;;;;;40.35;7.00;;;7.70;99.90;;;;;;6189931;23;20399;-74
2023/12/15 11:48:11;;;;;;;40.78;7.18;;;7.70;99.90;;;;;;6189616;23;20468;-74
2023/12/15 11:50:44;;;;;;;31.98;6.15;;;7.80;99.90;;;;;;6189782;23;20031;-74
2023/12/15 11:53:12;;;;;;;34.10;6.72;;;7.80;99.90;;;;;;6189965;23;20054;-74
2023/12/15 11:55:39;;;;;;;32.85;6.32;;;7.80;99.90;;;;;;6189413;23;20091;-74
2023/12/15 11:58:09;;;;;;;40.50;8.15;;;7.80;99.90;;;;;;6189855;23;20027;-74
2023/12/15 12:00:38;;;;;;;42.15;7.38;;;7.80;99.90;;;;;;6189768;23;20076;-74
2023/12/15 12:03:03;;;;;;;41.65;6.57;;;7.80;99.90;;;;;;6189648;23;20404;-74
2023/12/15 12:05:30;;;;;;;36.33;6.30;;;7.80;99.90;;;;;;6189892;23;20055;-74
2023/12/15 12:07:59;;;;;;;32.22;6.32;;;7.80;99.90;;;;;;6189748;23;20370;-74
2023/12/15 12:10:32;;;;;;;41.05;6.53;;;7.80;99.90;;;;;;6189828;23;20017;-74
2023/12/15 12:12:58;;;;;;;31.80;5.70;;;7.70;99.90;;;;;;6189481;23;20090;-74
2023/12/15 12:15:27;;;;;;;34.03;6.95;;;7.70;99.90;;;;;;6189475;23;20017;-74
2023/12/15 12:17:53;;;;;;;38.40;6.90;;;7.80;99.90;;;;;;6189835;23;20147;-74
2023/12/15 12:20:19;;;;;;;35.40;7.53;;;7.80;99.90;;;;;;6189613;23;20433;-74
2023/12/15 12:22:47;;;;;;;37.90;7.38;;;7.80;99.90;;;;;;6189578;23;20404;-74
2023/12/15 12:25:15;;;;;;;29.20;6.25;;;7.80;99.90;;;;;;6216376;23;20013;-74
2023/12/15 12:27:41;;;;;;;23.98;6.00;;;7.80;99.90;;;;;;6189419;23;20075;-74
2023/12/15 12:30:11;;;;;;;36.17;6.53;;;7.70;99.90;;;;;;6189402;23;20415;-74
2023/12/15 12:32:38;;;;;;;25.10;5.35;;;7.70;99.90;;;;;;6189634;23;20063;-74
2023/12/15 12:35:04;;;;;;;27.48;6.32;;;7.80;99.90;;;;;;6189459;23;20017;-74
2023/12/15 12:37:36;;;;;;;32.53;5.63;;;7.80;99.90;;;;;;6189436;23;20017;-75
2023/12/15 12:40:03;;;;;;;30.55;6.18;;;7.80;99.90;;;;;;6189005;23;20017;-74